Time;durP1;ratioP1;P1;durP2;ratioP2;P2;SDS_P1;SDS_P2;PMS_P1;PMS_P2;Temp;Humidity;BMP_temperature;BMP_pressure;BME280_temperature;BME280_humidity;BME280_pressure;Samples;Min_cycle;Max_cycle;Signal;HPM_P1;HPM_P2
2023/08/16 00:02:21;;;;;;;0.30;0.30;;;;;;;18.74;71.61;100432.16;5033908;28;20072;-74
2023/08/16 00:04:48;;;;;;;0.22;0.22;;;;;;;18.71;72.38;100430.00;5046691;28;20056;-75
2023/08/16 00:07:14;;;;;;;0.32;0.30;;;;;;;18.66;71.86;100439.25;5033156;28;20060;-75
2023/08/16 00:09:40;;;;;;;0.38;0.30;;;;;;;18.62;72.24;100442.97;5041163;28;20049;-74
2023/08/16 00:12:08;;;;;;;0.30;0.30;;;;;;;18.57;72.03;100441.13;5031041;28;20073;-75
2023/08/16 00:14:34;;;;;;;0.30;0.30;;;;;;;18.56;72.11;100439.50;5011521;28;20303;-75
2023/08/16 00:17:01;;;;;;;0.30;0.30;;;;;;;18.50;72.16;100441.56;5034669;28;20080;-74
2023/08/16 00:19:28;;;;;;;0.20;0.20;;;;;;;18.39;71.71;100431.84;5024083;28;20045;-74
2023/08/16 00:21:54;;;;;;;0.20;0.20;;;;;;;18.42;71.48;100447.88;5037549;28;20069;-71
2023/08/16 00:24:21;;;;;;;0.30;0.30;;;;;;;18.41;71.91;100443.44;5033834;28;20060;-71
2023/08/16 00:26:48;;;;;;;0.20;0.20;;;;;;;18.35;72.18;100436.38;5023279;28;20075;-76
2023/08/16 00:29:15;;;;;;;0.20;0.20;;;;;;;18.36;72.49;100440.78;5029384;28;20049;-75
2023/08/16 00:31:41;;;;;;;0.20;0.20;;;;;;;18.31;71.99;100438.94;5033218;28;20112;-75
2023/08/16 00:34:08;;;;;;;0.20;0.20;;;;;;;18.27;72.59;100443.47;5030548;28;20073;-75
2023/08/16 00:36:34;;;;;;;0.30;0.30;;;;;;;18.28;72.63;100443.19;4991403;28;20053;-76
2023/08/16 00:39:03;;;;;;;0.30;0.30;;;;;;;18.25;71.93;100445.75;5022059;28;20148;-71
2023/08/16 00:41:29;;;;;;;0.20;0.20;;;;;;;18.21;72.46;100453.84;5030204;28;20065;-70
2023/08/16 00:43:55;;;;;;;0.30;0.30;;;;;;;18.19;73.62;100450.56;5027312;28;20046;-70
2023/08/16 00:46:24;;;;;;;;;;;;;;;18.20;74.09;100451.41;5032849;28;20056;-70
2023/08/16 00:48:50;;;;;;;0.30;0.30;;;;;;;18.19;72.77;100449.75;5018866;28;19929;-71
2023/08/16 00:51:16;;;;;;;0.20;0.20;;;;;;;18.14;73.14;100454.25;5029627;28;20045;-71
2023/08/16 00:53:45;;;;;;;0.22;0.22;;;;;;;18.17;72.67;100460.31;5039415;28;20139;-73
2023/08/16 00:56:14;;;;;;;0.30;0.30;;;;;;;18.12;72.53;100453.75;5017707;28;20041;-75
2023/08/16 00:58:40;;;;;;;0.20;0.20;;;;;;;18.10;73.57;100457.94;5026323;28;20044;-75
2023/08/16 01:01:07;;;;;;;0.20;0.20;;;;;;;18.06;73.07;100456.94;5034719;28;20059;-74
2023/08/16 01:03:35;;;;;;;0.20;0.20;;;;;;;18.07;73.04;100459.41;5019767;28;20427;-75
2023/08/16 01:06:04;;;;;;;0.30;0.30;;;;;;;18.07;72.34;100453.88;5028877;28;20312;-73
2023/08/16 01:08:32;;;;;;;0.20;0.20;;;;;;;18.06;71.98;100459.72;5023981;28;20045;-75
2023/08/16 01:11:02;;;;;;;0.20;0.20;;;;;;;18.07;72.21;100458.56;5029114;28;20284;-74
2023/08/16 01:13:34;;;;;;;0.20;0.20;;;;;;;18.03;71.96;100461.16;5029873;28;20071;-74
2023/08/16 01:16:07;;;;;;;0.25;0.25;;;;;;;18.04;72.80;100462.81;5031031;28;20132;-75
2023/08/16 01:18:37;;;;;;;0.20;0.20;;;;;;;18.02;73.71;100467.81;5040702;28;20119;-70
2023/08/16 01:21:04;;;;;;;0.30;0.30;;;;;;;17.99;73.09;100465.63;5036727;28;20049;-70
2023/08/16 01:23:37;;;;;;;0.20;0.20;;;;;;;17.97;73.38;100460.41;5037105;28;20086;-70
2023/08/16 01:26:12;;;;;;;0.30;0.30;;;;;;;17.97;73.98;100460.41;5036414;28;20175;-70
2023/08/16 01:28:41;;;;;;;0.20;0.20;;;;;;;18.00;74.23;100476.41;5023985;28;20497;-71
2023/08/16 01:31:07;;;;;;;0.20;0.20;;;;;;;17.99;73.41;100466.47;5030050;28;20057;-70
2023/08/16 01:33:33;;;;;;;0.20;0.20;;;;;;;17.97;73.32;100474.25;5032650;28;20049;-71
2023/08/16 01:35:59;;;;;;;0.25;0.25;;;;;;;17.94;73.52;100472.06;5036918;28;20052;-70
2023/08/16 01:38:26;;;;;;;0.20;0.20;;;;;;;17.90;73.72;100473.84;5028800;28;20161;-70
2023/08/16 01:40:59;;;;;;;0.28;0.28;;;;;;;17.92;73.52;100479.88;5020893;28;20061;-72
2023/08/16 01:43:27;;;;;;;0.20;0.20;;;;;;;17.89;72.88;100474.97;5018600;28;20649;-71
2023/08/16 01:45:55;;;;;;;0.20;0.20;;;;;;;17.89;73.20;100474.16;5038184;28;20055;-71
2023/08/16 01:48:23;;;;;;;0.20;0.20;;;;;;;17.88;74.35;100473.31;5032372;28;20045;-71
2023/08/16 01:50:49;;;;;;;0.20;0.20;;;;;;;17.89;73.73;100480.50;5032680;28;20098;-70
2023/08/16 01:53:16;;;;;;;0.20;0.20;;;;;;;17.88;74.39;100473.31;5020306;28;20119;-69
2023/08/16 01:55:43;;;;;;;0.30;0.30;;;;;;;17.89;74.66;100479.69;5019618;28;20037;-75
2023/08/16 01:58:09;;;;;;;0.30;0.30;;;;;;;17.90;75.13;100484.09;5025625;28;20080;-75
2023/08/16 02:00:36;;;;;;;0.20;0.20;;;;;;;17.88;75.09;100491.88;5034038;28;20306;-75
2023/08/16 02:03:07;;;;;;;0.20;0.20;;;;;;;17.91;75.77;100492.06;5050446;28;20056;-72
2023/08/16 02:05:34;;;;;;;0.22;0.22;;;;;;;17.93;75.47;100498.09;5028765;28;20053;-71
2023/08/16 02:08:01;;;;;;;0.20;0.20;;;;;;;17.87;75.60;100493.81;5037566;28;20044;-69
2023/08/16 02:10:28;;;;;;;0.20;0.20;;;;;;;17.84;75.62;100498.00;5037183;28;20053;-70
2023/08/16 02:12:55;;;;;;;0.20;0.20;;;;;;;17.76;76.19;100489.59;5031618;28;20315;-71
2023/08/16 02:15:22;;;;;;;0.20;0.20;;;;;;;17.83;76.25;100506.63;5032759;28;20072;-71
2023/08/16 02:17:48;;;;;;;0.20;0.20;;;;;;;17.83;76.50;100501.09;5028077;28;20053;-71
2023/08/16 02:20:16;;;;;;;0.30;0.30;;;;;;;17.82;75.67;100508.56;5030114;28;20428;-70
2023/08/16 02:22:43;;;;;;;0.20;0.20;;;;;;;17.82;75.05;100511.31;5033503;28;20418;-71
2023/08/16 02:25:10;;;;;;;0.22;0.22;;;;;;;17.84;75.08;100500.78;5024436;28;20103;-69
2023/08/16 02:27:36;;;;;;;0.20;0.20;;;;;;;17.85;75.15;100501.59;5036140;28;20072;-71
2023/08/16 02:30:03;;;;;;;0.20;0.20;;;;;;;17.89;75.58;100504.59;5018354;28;20082;-70
2023/08/16 02:32:32;;;;;;;0.20;0.20;;;;;;;17.91;75.83;100508.66;5035733;28;20044;-72
2023/08/16 02:35:01;;;;;;;0.20;0.20;;;;;;;17.93;74.90;100506.41;5022250;28;20049;-71
2023/08/16 02:37:30;;;;;;;0.20;0.20;;;;;;;17.98;74.95;100508.25;5025438;28;20455;-71
2023/08/16 02:39:57;;;;;;;0.20;0.20;;;;;;;18.01;74.85;100504.88;5034036;28;20050;-71
2023/08/16 02:42:23;;;;;;;0.20;0.20;;;;;;;18.02;74.03;100506.53;5036430;28;20059;-71
2023/08/16 02:44:50;;;;;;;0.20;0.20;;;;;;;18.05;73.70;100511.47;5032261;28;20111;-71
2023/08/16 02:47:16;;;;;;;0.30;0.30;;;;;;;18.07;73.62;100502.84;5031265;28;20045;-72
2023/08/16 02:49:46;;;;;;;0.30;0.30;;;;;;;18.11;73.40;100503.88;5032638;28;20048;-71
2023/08/16 02:52:12;;;;;;;0.32;0.30;;;;;;;18.15;72.73;100504.91;5036280;28;20080;-71
2023/08/16 02:54:41;;;;;;;0.20;0.20;;;;;;;18.19;71.63;100513.41;5037068;28;20191;-71
2023/08/16 02:57:07;;;;;;;0.20;0.20;;;;;;;18.21;71.43;100513.91;5032824;28;20059;-71
2023/08/16 02:59:39;;;;;;;0.20;0.20;;;;;;;18.23;71.57;100522.72;5001528;28;20065;-70
2023/08/16 03:02:05;;;;;;;0.30;0.30;;;;;;;18.25;72.03;100517.69;5027913;28;20049;-71
2023/08/16 03:04:32;;;;;;;0.30;0.30;;;;;;;18.30;72.10;100522.31;5036179;28;20080;-71
2023/08/16 03:07:01;;;;;;;0.30;0.30;;;;;;;18.35;71.72;100527.72;5037921;28;20064;-72
2023/08/16 03:09:27;;;;;;;0.30;0.30;;;;;;;18.38;71.92;100533.47;5024732;28;20152;-71
2023/08/16 03:11:54;;;;;;;0.30;0.30;;;;;;;18.41;72.31;100529.25;5030956;28;20041;-71
2023/08/16 03:14:21;;;;;;;0.30;0.30;;;;;;;18.46;72.03;100533.84;5017695;28;20103;-72
2023/08/16 03:16:47;;;;;;;0.20;0.20;;;;;;;18.52;72.69;100532.63;5033988;28;20040;-71
2023/08/16 03:19:13;;;;;;;0.30;0.30;;;;;;;18.60;72.76;100537.41;5021389;28;20505;-71
2023/08/16 03:21:39;;;;;;;0.75;0.30;;;;;;;18.66;72.72;100529.81;5037450;28;20041;-72
2023/08/16 03:24:06;;;;;;;0.30;0.30;;;;;;;18.69;72.95;100523.66;5011345;28;20544;-71
2023/08/16 03:26:33;;;;;;;0.20;0.20;;;;;;;18.73;72.98;100523.84;5033214;28;20072;-71
2023/08/16 03:29:00;;;;;;;0.30;0.30;;;;;;;18.78;72.97;100529.25;5030337;28;20223;-71
2023/08/16 03:31:27;;;;;;;0.30;0.30;;;;;;;18.76;72.98;100518.50;5032476;28;20108;-71
2023/08/16 03:33:53;;;;;;;0.30;0.30;;;;;;;18.88;72.86;100537.34;5039013;28;20041;-71
2023/08/16 03:36:19;;;;;;;0.30;0.30;;;;;;;18.91;72.44;100535.91;5012127;28;20056;-71
2023/08/16 03:38:45;;;;;;;0.30;0.30;;;;;;;18.95;72.17;100532.16;5025449;28;20139;-71
2023/08/16 03:41:12;;;;;;;0.30;0.30;;;;;;;19.01;72.05;100540.41;5041674;28;20063;-71
2023/08/16 03:43:38;;;;;;;0.30;0.30;;;;;;;19.06;71.86;100543.06;5031727;28;20060;-72
2023/08/16 03:46:07;;;;;;;0.30;0.30;;;;;;;19.10;72.01;100547.66;5031134;28;20311;-71
2023/08/16 03:48:33;;;;;;;0.20;0.20;;;;;;;19.12;72.01;100548.16;5026765;28;20053;-71
2023/08/16 03:50:59;;;;;;;0.30;0.30;;;;;;;19.19;71.82;100556.03;5028591;28;20548;-71
2023/08/16 03:53:25;;;;;;;0.30;0.30;;;;;;;19.24;71.39;100555.09;5031069;28;20679;-71
2023/08/16 03:55:56;;;;;;;0.30;0.30;;;;;;;19.28;71.93;100556.09;5028937;28;20119;-69
2023/08/16 03:58:22;;;;;;;0.30;0.30;;;;;;;19.33;71.27;100549.59;5028977;28;20053;-71
2023/08/16 04:00:50;;;;;;;0.30;0.30;;;;;;;19.40;71.42;100550.78;5025953;28;20057;-72
2023/08/16 04:03:17;;;;;;;0.22;0.22;;;;;;;19.48;71.46;100552.00;5015142;28;20056;-71
2023/08/16 04:05:44;;;;;;;0.30;0.30;;;;;;;19.54;70.59;100555.44;5038962;28;20095;-71
2023/08/16 04:08:10;;;;;;;0.30;0.30;;;;;;;19.54;70.18;100561.81;5031229;28;20072;-71
2023/08/16 04:10:36;;;;;;;0.30;0.30;;;;;;;19.60;69.40;100551.41;5028380;28;20056;-70
2023/08/16 04:13:03;;;;;;;0.30;0.30;;;;;;;19.63;69.36;100550.75;5018416;28;20645;-71
2023/08/16 04:15:29;;;;;;;0.30;0.30;;;;;;;19.68;69.33;100544.25;5026892;28;20048;-70
2023/08/16 04:17:56;;;;;;;0.30;0.30;;;;;;;19.74;69.37;100551.28;5037549;28;20171;-71
2023/08/16 04:20:24;;;;;;;0.23;0.23;;;;;;;19.80;68.40;100551.97;5028195;28;20045;-71
2023/08/16 04:22:51;;;;;;;0.30;0.30;;;;;;;19.86;68.46;100553.50;5018577;28;20412;-71
2023/08/16 04:25:17;;;;;;;0.30;0.30;;;;;;;19.92;68.52;100557.78;5028572;28;20498;-72
2023/08/16 04:27:45;;;;;;;0.30;0.30;;;;;;;19.98;67.91;100552.91;5022873;28;20049;-70
2023/08/16 04:30:12;;;;;;;0.30;0.30;;;;;;;20.06;67.84;100557.69;5012928;28;20049;-72
2023/08/16 04:32:38;;;;;;;0.30;0.30;;;;;;;20.10;67.60;100550.34;5004443;28;20158;-72
2023/08/16 04:35:05;;;;;;;0.20;0.20;;;;;;;20.15;67.08;100559.66;5021299;28;20194;-71
2023/08/16 04:37:34;;;;;;;0.20;0.20;;;;;;;20.16;66.70;100548.25;5025345;28;20103;-71
2023/08/16 04:40:00;;;;;;;0.30;0.30;;;;;;;20.25;65.93;100551.84;5025799;28;20120;-72
2023/08/16 04:42:28;;;;;;;0.20;0.20;;;;;;;20.33;66.19;100558.56;5022529;28;20045;-76
2023/08/16 04:44:54;;;;;;;0.30;0.30;;;;;;;20.38;65.50;100560.38;5021292;28;20056;-76
2023/08/16 04:47:21;;;;;;;0.20;0.20;;;;;;;20.44;65.18;100549.94;5028494;28;20084;-75
2023/08/16 04:49:47;;;;;;;0.30;0.30;;;;;;;20.49;64.85;100564.50;5021754;28;20087;-75
2023/08/16 04:52:13;;;;;;;0.30;0.30;;;;;;;20.52;64.50;100563.84;5031611;28;20045;-75
2023/08/16 04:54:41;;;;;;;0.30;0.30;;;;;;;20.60;64.45;100565.00;5033360;28;20534;-75
2023/08/16 04:57:07;;;;;;;0.40;0.40;;;;;;;20.64;64.78;100562.41;5026107;28;20432;-75
2023/08/16 04:59:37;;;;;;;0.30;0.30;;;;;;;20.73;64.04;100567.97;5016123;28;20057;-75
2023/08/16 05:02:03;;;;;;;0.30;0.30;;;;;;;20.77;63.74;100558.66;5035266;28;20049;-75
2023/08/16 05:04:30;;;;;;;0.20;0.20;;;;;;;20.85;63.64;100557.06;5018513;28;20052;-75
2023/08/16 05:06:56;;;;;;;0.20;0.20;;;;;;;20.90;63.39;100564.38;5021699;28;20053;-75
2023/08/16 05:09:22;;;;;;;0.30;0.30;;;;;;;20.94;63.11;100563.41;5033512;28;20535;-75
2023/08/16 05:11:50;;;;;;;0.30;0.30;;;;;;;21.00;62.18;100555.75;5036861;28;20140;-75
2023/08/16 05:14:16;;;;;;;0.30;0.30;;;;;;;21.03;63.34;100557.84;5008821;28;20060;-76
2023/08/16 05:16:43;;;;;;;0.30;0.30;;;;;;;21.05;63.23;100563.91;5015554;28;20102;-71
2023/08/16 05:19:09;;;;;;;0.30;0.30;;;;;;;21.08;64.18;100566.06;5011103;28;20509;-71
2023/08/16 05:21:35;;;;;;;0.30;0.30;;;;;;;21.09;64.32;100564.06;5030691;28;20571;-72
2023/08/16 05:24:03;;;;;;;0.30;0.30;;;;;;;21.11;65.38;100570.94;5031068;28;20049;-72
2023/08/16 05:26:29;;;;;;;0.20;0.20;;;;;;;21.10;64.77;100560.97;5034924;28;20045;-71
2023/08/16 05:28:58;;;;;;;0.30;0.30;;;;;;;21.13;65.66;100564.25;5014138;28;20072;-71
2023/08/16 05:31:24;;;;;;;0.30;0.30;;;;;;;21.11;65.17;100559.81;5032379;28;20112;-74
2023/08/16 05:33:51;;;;;;;0.30;0.30;;;;;;;21.13;64.11;100562.25;5025739;28;20049;-74
2023/08/16 05:36:18;;;;;;;0.30;0.30;;;;;;;21.19;63.60;100571.25;5022460;28;20053;-74
2023/08/16 05:38:44;;;;;;;0.30;0.30;;;;;;;21.22;64.27;100562.25;5034295;28;20143;-73
2023/08/16 05:41:11;;;;;;;0.30;0.30;;;;;;;21.25;64.28;100562.41;4994166;28;1241676;-73
2023/08/16 05:43:37;;;;;;;0.30;0.30;;;;;;;21.33;63.99;100565.53;5013800;28;20354;-72
2023/08/16 05:46:04;;;;;;;0.30;0.30;;;;;;;21.39;64.25;100572.53;5030318;28;20068;-73
2023/08/16 05:48:31;;;;;;;0.30;0.30;;;;;;;21.41;63.02;100567.47;5014540;28;20272;-74
2023/08/16 05:50:57;;;;;;;0.30;0.30;;;;;;;21.43;62.76;100559.59;5030232;28;20151;-74
2023/08/16 05:53:23;;;;;;;0.30;0.30;;;;;;;21.48;62.34;100559.44;5024857;28;20116;-74
2023/08/16 05:55:49;;;;;;;0.20;0.20;;;;;;;21.56;63.15;100549.44;5026423;28;20065;-74
2023/08/16 05:58:16;;;;;;;0.30;0.30;;;;;;;21.59;62.54;100551.56;5014941;28;20368;-73
2023/08/16 06:00:45;;;;;;;0.30;0.30;;;;;;;21.63;62.08;100562.84;5037485;28;20053;-73
2023/08/16 06:03:14;;;;;;;0.30;0.30;;;;;;;21.66;60.96;100557.44;5031641;28;20041;-74
2023/08/16 06:05:40;;;;;;;0.30;0.30;;;;;;;21.79;60.31;100544.50;5031464;28;20662;-72
2023/08/16 06:08:08;;;;;;;0.30;0.30;;;;;;;22.02;60.05;100549.00;5028953;28;20046;-72
2023/08/16 06:10:34;;;;;;;0.30;0.30;;;;;;;22.14;58.31;100551.06;5035857;28;20041;-72
2023/08/16 06:13:00;;;;;;;0.30;0.30;;;;;;;22.28;57.98;100536.88;5033963;28;20049;-74
2023/08/16 06:15:27;;;;;;;0.30;0.30;;;;;;;22.41;56.33;100541.38;5032570;28;20041;-74
2023/08/16 06:17:53;;;;;;;0.30;0.30;;;;;;;22.51;56.10;100545.78;5027897;28;20115;-75
2023/08/16 06:20:22;;;;;;;0.30;0.30;;;;;;;22.56;55.67;100547.56;5028303;28;20452;-74
2023/08/16 06:22:48;;;;;;;0.30;0.30;;;;;;;22.66;55.22;100547.97;5026725;28;20136;-74
2023/08/16 06:25:15;;;;;;;0.30;0.30;;;;;;;22.74;55.11;100553.81;5030717;28;20052;-74
2023/08/16 06:27:41;;;;;;;0.30;0.30;;;;;;;22.82;54.71;100546.56;5017209;28;20038;-74
2023/08/16 06:30:08;;;;;;;0.30;0.30;;;;;;;22.88;54.27;100542.41;5006213;28;20041;-75
2023/08/16 06:32:34;;;;;;;;;;;;;;;23.04;54.26;100546.19;5024606;28;20165;-74
2023/08/16 06:35:03;;;;;;;0.30;0.30;;;;;;;23.19;53.15;100546.72;5009865;28;20395;-74
2023/08/16 06:37:31;;;;;;;0.30;0.30;;;;;;;23.23;52.22;100545.69;5017711;28;20730;-74
2023/08/16 06:39:58;;;;;;;0.30;0.30;;;;;;;23.31;51.77;100546.78;5034882;28;20053;-74
2023/08/16 06:42:25;;;;;;;0.40;0.40;;;;;;;23.44;51.42;100546.84;5030492;28;20545;-74
2023/08/16 06:44:51;;;;;;;0.40;0.40;;;;;;;23.57;51.01;100545.72;5014882;28;20476;-74
2023/08/16 06:47:17;;;;;;;0.30;0.30;;;;;;;23.77;50.88;100543.16;5034884;28;20057;-73
2023/08/16 06:49:44;;;;;;;0.30;0.30;;;;;;;23.93;50.50;100546.91;5033219;28;20040;-75
2023/08/16 06:52:10;;;;;;;0.30;0.30;;;;;;;24.01;49.30;100536.78;5032990;28;20392;-75
2023/08/16 06:54:38;;;;;;;0.30;0.30;;;;;;;24.10;49.18;100541.47;5037458;28;20068;-75
2023/08/16 06:57:05;;;;;;;0.30;0.30;;;;;;;24.17;48.35;100538.91;5033970;28;20046;-75
2023/08/16 06:59:31;;;;;;;0.30;0.30;;;;;;;24.16;48.69;100535.28;5023918;28;20679;-75
2023/08/16 07:01:59;;;;;;;0.30;0.30;;;;;;;24.20;48.32;100536.25;5018553;28;20046;-70
2023/08/16 07:04:25;;;;;;;0.40;0.40;;;;;;;24.27;48.16;100534.81;5034363;28;20055;-74
2023/08/16 07:06:52;;;;;;;0.30;0.30;;;;;;;24.19;47.95;100540.19;5019049;28;20100;-74
2023/08/16 07:09:18;;;;;;;0.30;0.30;;;;;;;24.11;47.65;100546.72;5034074;28;20095;-71
2023/08/16 07:11:45;;;;;;;0.30;0.30;;;;;;;23.93;48.30;100549.69;5032333;28;20041;-71
2023/08/16 07:14:12;;;;;;;0.40;0.40;;;;;;;23.72;49.04;100537.78;5032754;28;20057;-71
2023/08/16 07:16:39;;;;;;;0.30;0.30;;;;;;;23.85;48.55;100533.84;5028561;28;20053;-71
2023/08/16 07:19:09;;;;;;;0.40;0.40;;;;;;;24.06;47.66;100546.94;5020662;28;20400;-73
2023/08/16 07:21:39;;;;;;;0.40;0.40;;;;;;;24.37;46.73;100537.16;5027430;28;20060;-72
2023/08/16 07:24:06;;;;;;;0.40;0.40;;;;;;;24.60;46.31;100548.66;5023591;28;20106;-74
2023/08/16 07:26:32;;;;;;;0.40;0.40;;;;;;;24.71;45.13;100540.56;5019844;28;20041;-74
2023/08/16 07:29:00;;;;;;;0.40;0.40;;;;;;;24.76;44.03;100531.97;5022923;28;20049;-71
2023/08/16 07:31:29;;;;;;;0.30;0.30;;;;;;;24.56;44.68;100528.13;5032785;28;20060;-71
2023/08/16 07:33:55;;;;;;;0.40;0.40;;;;;;;24.21;45.74;100545.41;5034205;28;20060;-75
2023/08/16 07:36:22;;;;;;;0.60;0.40;;;;;;;24.41;46.12;100540.03;5028816;28;20460;-72
2023/08/16 07:38:48;;;;;;;0.40;0.40;;;;;;;24.51;46.18;100539.56;5012841;28;20246;-71
2023/08/16 07:41:15;;;;;;;0.30;0.30;;;;;;;24.71;45.41;100539.75;5032091;28;20061;-73
2023/08/16 07:43:41;;;;;;;;;;;;;;;24.75;45.43;100543.47;5030050;28;20075;-74
2023/08/16 07:46:09;;;;;;;0.40;0.40;;;;;;;25.06;44.21;100536.41;5028183;28;19931;-73
2023/08/16 07:48:35;;;;;;;0.40;0.40;;;;;;;25.52;43.42;100541.69;5032194;28;20519;-72
2023/08/16 07:51:01;;;;;;;0.40;0.40;;;;;;;25.90;42.47;100550.63;5036206;28;20040;-71
2023/08/16 07:53:28;;;;;;;0.73;0.40;;;;;;;26.23;41.75;100537.47;5032784;28;20045;-72
2023/08/16 07:55:54;;;;;;;0.40;0.40;;;;;;;26.39;41.38;100535.44;5013056;28;20059;-71
2023/08/16 07:58:20;;;;;;;0.40;0.40;;;;;;;26.51;41.21;100540.09;5025758;28;20037;-74
2023/08/16 08:00:52;;;;;;;0.40;0.40;;;;;;;26.54;40.59;100538.56;5016572;28;20066;-72
2023/08/16 08:03:21;;;;;;;0.30;0.30;;;;;;;26.55;40.56;100526.97;5033225;28;20619;-71
2023/08/16 08:05:48;;;;;;;0.40;0.40;;;;;;;26.40;40.21;100533.41;5014780;28;20041;-71
2023/08/16 08:08:14;;;;;;;0.40;0.40;;;;;;;26.48;39.99;100533.22;5061612;28;20041;-71
2023/08/16 08:10:42;;;;;;;0.40;0.40;;;;;;;26.86;39.67;100528.03;5031538;28;20406;-73
2023/08/16 08:13:08;;;;;;;0.40;0.40;;;;;;;27.12;38.95;100523.75;5036104;28;20520;-73
2023/08/16 08:15:35;;;;;;;0.40;0.40;;;;;;;27.18;39.97;100518.66;5030571;28;20045;-74
2023/08/16 08:18:02;;;;;;;0.50;0.50;;;;;;;27.21;38.94;100529.13;5025629;28;20071;-73
2023/08/16 08:20:30;;;;;;;0.50;0.50;;;;;;;27.41;38.27;100523.47;5054370;28;20036;-74
2023/08/16 08:22:56;;;;;;;0.40;0.40;;;;;;;27.39;37.29;100526.66;5032964;28;20521;-73
2023/08/16 08:25:24;;;;;;;0.50;0.50;;;;;;;27.35;36.69;100522.16;5036478;28;20140;-71
2023/08/16 08:27:51;;;;;;;0.50;0.50;;;;;;;27.40;35.85;100516.25;5035567;28;20037;-71
2023/08/16 08:30:18;;;;;;;0.50;0.50;;;;;;;27.34;37.19;100524.16;5036170;28;20083;-72
2023/08/16 08:32:44;;;;;;;0.50;0.50;;;;;;;27.56;37.38;100530.22;5018891;28;20037;-71
2023/08/16 08:35:12;;;;;;;0.47;0.47;;;;;;;28.03;36.21;100523.38;5034474;28;20052;-71
2023/08/16 08:37:41;;;;;;;0.50;0.50;;;;;;;28.31;34.85;100510.94;5029052;28;20053;-71
2023/08/16 08:40:07;;;;;;;0.50;0.50;;;;;;;28.34;35.47;100520.63;5032055;28;20633;-71
2023/08/16 08:42:35;;;;;;;0.50;0.50;;;;;;;28.36;34.50;100515.44;5036079;28;20048;-72
2023/08/16 08:45:04;;;;;;;0.50;0.50;;;;;;;28.22;35.08;100526.47;5041224;28;20049;-71
2023/08/16 08:47:32;;;;;;;0.50;0.50;;;;;;;28.19;34.26;100510.34;5042256;28;20048;-72
2023/08/16 08:50:02;;;;;;;0.50;0.50;;;;;;;28.32;34.27;100520.19;5025743;28;20046;-72
2023/08/16 08:52:31;;;;;;;0.50;0.50;;;;;;;28.67;34.04;100526.69;5022238;28;20072;-73
2023/08/16 08:54:58;;;;;;;0.50;0.50;;;;;;;28.81;33.37;100528.91;5023278;28;20115;-72
2023/08/16 08:57:28;;;;;;;0.50;0.50;;;;;;;28.80;33.74;100528.09;5022162;28;20053;-73
2023/08/16 08:59:57;;;;;;;0.50;0.50;;;;;;;28.97;33.02;100528.72;5027674;28;20048;-72
2023/08/16 09:02:26;;;;;;;0.50;0.50;;;;;;;29.11;32.83;100526.06;5022682;28;20285;-71
2023/08/16 09:04:54;;;;;;;0.60;0.60;;;;;;;29.05;32.60;100536.03;5024698;28;20095;-72
2023/08/16 09:07:22;;;;;;;0.63;0.60;;;;;;;29.08;32.64;100532.44;5020385;28;20064;-72
2023/08/16 09:09:49;;;;;;;0.60;0.60;;;;;;;29.20;32.97;100536.19;5022047;28;20127;-71
2023/08/16 09:12:18;;;;;;;0.60;0.60;;;;;;;29.30;33.61;100527.06;5021538;28;20505;-72
2023/08/16 09:14:45;;;;;;;0.60;0.60;;;;;;;29.45;32.89;100528.03;5021333;28;20045;-71
2023/08/16 09:17:11;;;;;;;0.60;0.60;;;;;;;29.41;32.59;100524.34;5027035;28;20037;-74
2023/08/16 09:19:43;;;;;;;0.60;0.60;;;;;;;29.36;32.60;100524.69;5036457;28;20547;-73
2023/08/16 09:22:10;;;;;;;0.60;0.60;;;;;;;29.34;33.50;100521.44;5025875;28;20104;-71
2023/08/16 09:24:36;;;;;;;0.60;0.60;;;;;;;29.41;33.24;100527.16;5037501;28;20139;-73
2023/08/16 09:27:03;;;;;;;0.60;0.60;;;;;;;29.70;32.74;100522.63;5009331;28;20049;-72
2023/08/16 09:29:31;;;;;;;0.65;0.65;;;;;;;29.68;32.86;100518.59;5026386;28;20132;-72
2023/08/16 09:31:58;;;;;;;0.70;0.70;;;;;;;29.38;32.68;100523.09;5037328;28;20052;-71
2023/08/16 09:34:24;;;;;;;0.60;0.60;;;;;;;29.40;32.47;100520.69;5040129;28;20092;-72
2023/08/16 09:36:51;;;;;;;;;;;;;;;29.50;32.91;100519.22;5046354;28;20047;-71
2023/08/16 09:39:18;;;;;;;0.60;0.60;;;;;;;29.62;32.53;100520.94;5044195;28;19967;-73
2023/08/16 09:41:51;;;;;;;0.70;0.70;;;;;;;29.52;32.26;100522.47;5035503;28;20046;-72
2023/08/16 09:44:18;;;;;;;0.60;0.60;;;;;;;29.47;32.17;100519.19;5042397;28;20534;-72
2023/08/16 09:46:46;;;;;;;;;;;;;;;29.57;32.58;100519.28;5043749;28;20076;-71
2023/08/16 09:49:12;;;;;;;0.60;0.60;;;;;;;29.77;32.71;100519.06;5031230;28;20456;-71
2023/08/16 09:51:40;;;;;;;0.65;0.65;;;;;;;30.05;32.62;100517.69;5024869;28;20049;-71
2023/08/16 09:54:14;;;;;;;0.50;0.50;;;;;;;30.59;31.26;100519.22;5043462;28;20051;-71
2023/08/16 09:56:43;;;;;;;0.70;0.70;;;;;;;31.05;30.75;100509.31;5044749;28;20412;-72
2023/08/16 09:59:13;;;;;;;0.63;0.63;;;;;;;31.49;30.59;100502.56;5026360;28;20135;-73
2023/08/16 10:01:40;;;;;;;0.70;0.70;;;;;;;32.03;28.78;100509.44;5022382;28;20413;-73
2023/08/16 10:04:09;;;;;;;0.70;0.70;;;;;;;32.50;28.08;100512.22;5045221;28;20081;-72
2023/08/16 10:06:35;;;;;;;0.70;0.70;;;;;;;32.86;27.63;100511.22;5030547;28;20040;-74
2023/08/16 10:09:04;;;;;;;0.60;0.60;;;;;;;33.59;26.94;100517.31;5034724;28;20046;-74
2023/08/16 10:11:33;;;;;;;0.70;0.70;;;;;;;33.64;26.65;100514.03;5028672;28;20046;-73
2023/08/16 10:14:02;;;;;;;0.70;0.70;;;;;;;33.68;26.62;100514.00;5028139;28;20041;-71
2023/08/16 10:16:30;;;;;;;0.60;0.60;;;;;;;33.78;26.03;100504.59;5044945;28;20107;-71
2023/08/16 10:19:00;;;;;;;0.60;0.60;;;;;;;34.30;25.53;100509.38;5045688;28;20080;-71
2023/08/16 10:21:31;;;;;;;0.70;0.70;;;;;;;34.75;25.29;100514.16;5044301;28;20060;-71
2023/08/16 10:23:59;;;;;;;0.60;0.60;;;;;;;34.65;25.61;100504.50;5008637;28;20551;-73
2023/08/16 10:26:30;;;;;;;0.60;0.60;;;;;;;35.18;25.13;100511.94;5036039;28;20049;-70
2023/08/16 10:29:01;;;;;;;0.68;0.68;;;;;;;35.48;24.88;100501.75;5037044;28;20045;-71
2023/08/16 10:31:32;;;;;;;0.40;0.40;;;;;;;34.71;25.48;100502.00;5047382;28;20045;-69
2023/08/16 10:34:01;;;;;;;0.40;0.40;;;;;;;32.37;28.46;100509.81;5035055;28;20049;-70
2023/08/16 10:36:30;;;;;;;0.70;0.70;;;;;;;32.58;27.97;100493.97;5027628;28;20045;-71
2023/08/16 10:38:57;;;;;;;0.60;0.60;;;;;;;33.77;26.61;100497.31;5023309;28;20045;-73
2023/08/16 10:41:23;;;;;;;;;;;;;;;34.59;25.24;100508.28;5038265;28;20057;-74
2023/08/16 10:43:51;;;;;;;0.80;0.80;;;;;;;35.14;25.15;100499.84;5039696;28;19929;-73
2023/08/16 10:46:26;;;;;;;0.85;0.85;;;;;;;35.55;24.64;100500.84;5044150;28;20049;-73
2023/08/16 10:48:56;;;;;;;0.40;0.40;;;;;;;35.34;24.46;100494.25;5045145;28;20414;-73
2023/08/16 10:51:22;;;;;;;1.00;1.00;;;;;;;34.70;25.30;100491.88;5041932;28;20052;-72
2023/08/16 10:53:50;;;;;;;1.00;1.00;;;;;;;35.36;24.56;100491.78;5034492;28;20067;-70
2023/08/16 10:56:19;;;;;;;1.00;1.00;;;;;;;36.23;23.54;100490.31;5041020;28;20575;-71
2023/08/16 10:58:50;;;;;;;1.10;1.10;;;;;;;36.56;23.20;100490.50;5036635;28;20087;-71
2023/08/16 11:01:16;;;;;;;1.10;1.10;;;;;;;37.05;23.13;100494.75;5029224;28;20045;-70
2023/08/16 11:03:49;;;;;;;1.10;1.10;;;;;;;37.26;22.01;100475.53;5030478;28;20491;-70
2023/08/16 11:06:19;;;;;;;1.20;1.20;;;;;;;37.62;21.48;100477.50;5034588;28;20052;-70
2023/08/16 11:08:47;;;;;;;1.30;1.20;;;;;;;37.73;20.91;100483.72;5014797;28;20049;-70
2023/08/16 11:11:15;;;;;;;1.30;1.20;;;;;;;37.92;20.86;100480.41;5037316;28;20611;-70
2023/08/16 11:13:42;;;;;;;1.17;1.13;;;;;;;37.97;20.99;100480.66;5034800;28;20048;-72
2023/08/16 11:16:10;;;;;;;1.40;1.30;;;;;;;37.96;21.16;100478.25;5030550;28;20042;-72
2023/08/16 11:18:38;;;;;;;1.30;1.20;;;;;;;37.50;22.04;100478.22;5014836;28;20505;-70
2023/08/16 11:21:07;;;;;;;1.40;1.30;;;;;;;37.60;21.99;100477.13;5015276;28;20099;-69
2023/08/16 11:23:36;;;;;;;1.40;1.30;;;;;;;38.04;21.50;100474.00;5028759;28;20151;-70
2023/08/16 11:26:03;;;;;;;1.40;1.30;;;;;;;38.12;21.17;100474.59;5019837;28;20044;-73
2023/08/16 11:28:32;;;;;;;0.70;0.70;;;;;;;38.14;21.44;100472.09;5032192;28;20041;-73